Pedro Gomes

Ojeador - Grêmio
9 Dic 2027
Jueves
Continuar

Personalidad

Adaptabilidad (1) Ambición (9) Controversia (5) Lealtad (9) Presión (1) Profesionalismo (1) Deportividad (12) Temperamento (1)

Perfil

Estilo de dirección Democrático
Licencia Nacional A
Determinación 15
Gestión de personas 13
Motivación 13
Disciplina 10
Satisfacción laboral
100%
Fatiga
0%
Cargo Ojeador
Salario 116.2K p/s
Contrato 14.03.2029

Rendimiento

Comportamiento Bueno
Efectividad del entrenamiento
49%
Desarrollo de jugadores
45%
Prevención de lesiones
60%
Implementación táctica
35%

Eventos recientes

Asistió a una reunión de captación 7d atrás
Evaluó a un jugador 7d atrás
Presentó un informe a la directiva 7d atrás
Asistió a una reunión de captación 14d atrás
Asistió a una reunión de captación 21d atrás
Asistió a una reunión de captación 28d atrás
Asistió a una reunión de captación 35d atrás
Asistió a una reunión de captación 42d atrás

Actualmente siguiendo

98
Jugador Club Estado Habilidad Confianza Observado Última observación Último voto
Victor Sá São Paulo Activo 114 / 127 55% 1 01.12.2027 Observar
Myles Lewis-Skelly Birmingham Activo 150 / 161 40% 1 30.11.2027 -
Josh Nichols Tranmere Rovers Activo 131 / 126 40% 1 30.11.2027 -
Gonçalo Oliveira Benfica Activo 117 / 136 40% 1 20.07.2027 -
Leandro Martins Benfica Activo 83 / 87 40% 1 20.07.2027 -
Dango Ouattara Brentford Activo 158 / 163 40% 1 30.05.2027 -
Hector Ramirez Newcastle United Activo 162 / 143 40% 2 29.05.2027 -
Matt O'Riley Brighton Activo 141 / 141 40% 2 29.05.2027 -
Guille Rosas Gijón Activo 155 / 135 40% 2 29.05.2027 -
Borja Sainz Fiorentina Activo 136 / 150 40% 3 28.05.2027 -
Mats Wieffer Brighton Activo 149 / 135 40% 2 27.05.2027 -
Jacob Ramsey Newcastle United Activo 147 / 156 40% 3 25.05.2027 -
Francisco Conceição Juventus Activo 170 / 173 40% 3 25.05.2027 -
Jan Paul van Hecke Tottenham Activo 174 / 171 40% 1 24.05.2027 -
Curtis Jones Inter Activo 142 / 171 40% 1 24.05.2027 -
Jack McGlynn Stoke City Activo 129 / 144 40% 2 23.05.2027 -
Florentino Luís Ipswich Town Activo 157 / 129 40% 2 23.05.2027 -
Jack Rudoni Coventry City Activo 128 / 135 40% 2 23.05.2027 -
Boubacar Kamara Aston Villa Activo 165 / 148 40% 1 23.05.2027 -
Kiernan Dewsbury-Hall Everton Activo 158 / 165 40% 1 21.05.2027 -
Giacomo Raspadori Atalanta Activo 143 / 158 40% 3 20.05.2027 -
Callum Hudson-Odoi Nottingham Forest Activo 162 / 153 40% 2 20.05.2027 -
Ethan Galbraith Swansea City Activo 148 / 146 40% 1 19.05.2027 -
Jake O'Brien Everton Activo 163 / 132 40% 1 19.05.2027 -
Othmane Maamma Watford Activo 135 / 125 40% 1 18.05.2027 -
Alexis Saelemaekers AC Milan Activo 150 / 142 40% 1 17.05.2027 -
Morgan Whittaker Middlesbrough Activo 134 / 144 40% 4 14.05.2027 -
Nicolas Jackson Aston Villa Activo 140 / 145 40% 3 14.05.2027 -
Georginio Rutter Brighton Activo 155 / 148 40% 1 14.05.2027 -
Welington Southampton Activo 138 / 135 40% 3 12.05.2027 -
Yehor Yarmoliuk Brentford Activo 142 / 146 40% 1 11.05.2027 -
Carlos Vicente Birmingham Activo 149 / 137 40% 2 10.05.2027 -
Scott Twine Bristol City Activo 127 / 132 40% 2 07.05.2027 -
Adam Wharton Crystal Palace Activo 145 / 143 40% 1 01.05.2027 -
Xavi Simons Tottenham Activo 166 / 168 40% 1 30.04.2027 -
Derensili Sanches Fernandes Huddersfield Town Activo 116 / 140 40% 2 29.04.2027 -
Carlos Alcaraz Everton Activo 138 / 159 40% 1 28.04.2027 -
Mario Dorgeles Braga Activo 136 / 130 40% 3 25.04.2027 -
Tom Fellows Southampton Activo 122 / 138 40% 4 25.04.2027 -
Rodrigo Zalazar Sporting CP Activo 154 / 163 40% 1 24.04.2027 -
William Gomes Porto Activo 160 / 157 40% 2 22.04.2027 -
Bright Arrey-Mbi Braga Activo 144 / 134 40% 2 21.04.2027 -
Nico González Newcastle United Activo 161 / 159 40% 2 21.04.2027 -
Amadou Onana Aston Villa Activo 168 / 143 40% 1 18.04.2027 -
Fredrik Aursnes Benfica Activo 154 / 138 40% 1 17.04.2027 -
Léo Scienza Southampton Activo 138 / 132 40% 1 17.04.2027 -
Finn Azaz Southampton Activo 129 / 123 40% 4 15.04.2027 -
Iván Fresneda Sporting CP Activo 143 / 137 40% 5 13.04.2027 -
Bosun Lawal Stoke City Activo 125 / 121 40% 1 13.04.2027 -
Lewis Ferguson Bologna Activo 152 / 129 40% 1 12.04.2027 -
Pau Víctor AVS Activo 136 / 134 40% 4 11.04.2027 -
Milan van Ewijk Mansfield Town Activo 144 / 123 40% 1 09.04.2027 -
Noah Sadiki Sunderland Activo 135 / 155 40% 1 09.04.2027 -
Isaiah Jones Luton Town Activo 113 / 137 40% 1 05.04.2027 -
Luke McNally Bristol City Activo 133 / 117 40% 1 04.04.2027 -
Jesús Orozco Chiquete Cruz Azul Activo 137 / 133 40% 3 01.04.2027 -
Soungoutou Magassa West Ham United Activo 143 / 134 40% 1 01.04.2027 -
Sergi Altimira Sporting CP Activo 146 / 136 40% 1 31.03.2027 -
Víctor Gómez Braga Activo 143 / 136 40% 3 29.03.2027 -
Valery Académico de Viseu Activo 120 / 139 40% 1 29.03.2027 -
Zeno Debast Sporting CP Activo 153 / 152 40% 2 28.03.2027 -
Paulo Moreira Farense Activo 134 / 119 40% 2 28.03.2027 -
Erick Sánchez OGC Nice Activo 157 / 155 40% 3 27.03.2027 -
Gabri Martínez Braga Activo 136 / 119 40% 2 26.03.2027 -
Imrân Louza Watford Activo 133 / 140 40% 1 26.03.2027 -
Jacques Ekomié Wrexham Activo 116 / 136 40% 1 26.03.2027 -
Ozziel Herrera Tigres Activo 122 / 136 40% 4 24.03.2027 -
Alberto Costa Porto Activo 160 / 153 40% 6 23.03.2027 -
Tyrell Malacia Monaco Activo 133 / 140 40% 1 21.03.2027 -
Nicolás Fernández Mercau Shakhtar Activo 133 / 149 40% 3 20.03.2027 -
Eduardo Quaresma Sporting CP Activo 142 / 147 40% 1 19.03.2027 -
Alan Varela Porto Activo 142 / 155 40% 3 17.03.2027 -
Félix Lemaréchal Club Brugge Activo 147 / 150 40% 2 17.03.2027 -
Rodrigo Pinheiro Famalicao Activo 113 / 126 40% 2 16.03.2027 -
Francisco Moura Lusitânia Lourosa Activo 130 / 154 40% 3 14.03.2027 -
Marcelo Allende Mamelodi Sundowns Activo 147 / 140 40% 1 12.03.2027 -
Kwadwo Baah Watford Activo 112 / 136 40% 1 12.03.2027 -
Naïs Djouahra Arouca Activo 127 / 113 40% 2 08.03.2027 -
Santi García Gil Vicente Activo 136 / 116 40% 2 08.03.2027 -
Max Bird Birmingham Activo 118 / 124 40% 1 08.03.2027 -
Gonçalo Inácio Sporting CP Activo 132 / 145 40% 2 03.03.2027 -
Sikou Niakaté Braga Activo 122 / 143 40% 1 03.03.2027 -
Gustaf Lagerbielke Braga Activo 138 / 124 40% 1 02.03.2027 -
Brian Rodríguez Club America Activo 115 / 131 40% 1 28.02.2027 -
Luís Guilherme Sporting CP Activo 121 / 118 40% 2 27.02.2027 -
Figueiredo Alverca Activo 118 / 141 40% 1 23.02.2027 -
Rafik Guitane Estoril Praia Activo 145 / 148 40% 1 21.02.2027 -
Ousmane Diomande Nottingham Forest Activo 141 / 138 40% 1 21.02.2027 -
João Simões Sporting CP Activo 127 / 131 40% 3 20.02.2027 -
Bamba Dieng Crvena Zvezda Activo 123 / 144 40% 1 18.02.2027 -
Ilay Camara Anderlecht Activo 140 / 145 40% 1 14.02.2027 -
Mathias De Amorim Famalicao Activo 130 / 129 40% 1 10.02.2027 -
Dara O'Shea Ipswich Town Activo 141 / 125 40% 1 07.02.2027 -
Diego Lainez Tigres Activo 119 / 134 40% 1 03.02.2027 -
Heorhii Sudakov Benfica Activo 148 / 156 40% 1 03.02.2027 -
Dinis Pinto Moreirense Activo 119 / 120 40% 1 30.11.2026 -
Ricardo Horta Braga Activo 148 / 136 40% 1 03.08.2026 -
Dodi Lukébakio Benfica Activo 128 / 144 40% 1 03.08.2026 -